Terminal Aerodrome Forecast
Issued by NWS

Home | Current Version | Previous Version | Text Only | Print | Product List | Glossary On
Versions: 1 2 3 4 5 6 7 8 9 10 11 12 13 14 15 16 17 18 19 20
000
FTUS42 KMHX 161133
TAFOAJ
TAF
KOAJ 161133Z 1612/1712 VRB03KT 2SM BR OVC002
     FM161400 01005KT P6SM BKN010
     FM161800 VRB04KT P6SM VCSH BKN040
     FM162100 35005KT P6SM BKN035
     FM170600 00000KT 3SM BR SCT250
     FM170800 00000KT 1SM BR BKN002
      AMD LTD TO CLD VIS AND WIND=

USA.gov is the U.S. government's official web portal to all federal, state and local government web resources and services.